Time;durP1;ratioP1;P1;durP2;ratioP2;P2;SDS_P1;SDS_P2;PMS_P1;PMS_P2;Temp;Humidity;BMP_temperature;BMP_pressure;BME280_temperature;BME280_humidity;BME280_pressure;Samples;Min_cycle;Max_cycle;Signal;HPM_P1;HPM_P2
2023/07/02 00:00:29;;;;;;;;;;;;;;;;;;5034445;28;19921;-84
2023/07/02 00:02:55;;;;;;;;;;;;;;;;;;5017847;28;19921;-84
2023/07/02 00:05:24;;;;;;;;;;;;;;;;;;5036180;28;19921;-85
2023/07/02 00:07:54;;;;;;;;;;;;;;;;;;5035430;28;19943;-85
2023/07/02 00:10:21;;;;;;;;;;;;;;;;;;5033617;28;20397;-82
2023/07/02 00:12:50;;;;;;;;;;;;;;;;;;5029912;28;19993;-84
2023/07/02 00:15:16;;;;;;;;;;;;;;;;;;5014215;28;19925;-84
2023/07/02 00:17:42;;;;;;;;;;;;;;;;;;5014760;28;19921;-83
2023/07/02 00:20:15;;;;;;;;;;;;;;;;;;5030763;28;19921;-84
2023/07/02 00:22:56;;;;;;;;;;;;;;;;;;5029310;28;19925;-85
2023/07/02 00:25:25;;;;;;;;;;;;;;;;;;5032447;28;19943;-82
2023/07/02 00:27:58;;;;;;;;;;;;;;;;;;5031901;28;19944;-85
2023/07/02 00:30:27;;;;;;;;;;;;;;;;;;5014922;28;20000;-83
2023/07/02 00:32:56;;;;;;;;;;;;;;;;;;5014526;28;19922;-86
2023/07/02 00:35:23;;;;;;;;;;;;;;;;;;5013932;28;19968;-86
2023/07/02 00:37:49;;;;;;;;;;;;;;;;;;5015222;28;19921;-84
2023/07/02 00:40:15;;;;;;;;;;;;;;;;;;5015087;28;20478;-85
2023/07/02 00:42:44;;;;;;;;;;;;;;;;;;5015164;28;19929;-83
2023/07/02 00:45:10;;;;;;;;;;;;;;;;;;5016092;28;19922;-86
2023/07/02 00:47:38;;;;;;;;;;;;;;;;;;5015311;28;19925;-86
2023/07/02 00:50:14;;;;;;;;;;;;;;;;;;5014013;28;19945;-84
2023/07/02 00:52:55;;;;;;;;;;;;;;;;;;5031744;28;19948;-84
2023/07/02 00:55:32;;;;;;;;;;;;;;;;;;5014977;28;20006;-87
2023/07/02 00:57:58;;;;;;;;;;;;;;;;;;5013873;28;19928;-83
2023/07/02 01:00:24;;;;;;;;;;;;;;;;;;5015218;28;19968;-84
2023/07/02 01:02:50;;;;;;;;;;;;;;;;;;5014663;28;19961;-84
2023/07/02 01:05:21;;;;;;;;;;;;;;;;;;5014556;28;19921;-86
2023/07/02 01:08:06;;;;;;;;;;;;;;;;;;5032018;28;19920;-83
2023/07/02 01:10:35;;;;;;;;;;;;;;;;;;5031434;28;19929;-84
2023/07/02 01:13:05;;;;;;;;;;;;;;;;;;5031501;28;19977;-85
2023/07/02 01:15:34;;;;;;;;;;;;;;;;;;5024020;28;19921;-84
2023/07/02 01:18:00;;;;;;;;;;;;;;;;;;5017689;28;19921;-84
2023/07/02 01:20:26;;;;;;;;;;;;;;;;;;5017808;28;19928;-84
2023/07/02 01:22:52;;;;;;;;;;;;;;;;;;5017854;28;19928;-85
2023/07/02 01:25:18;;;;;;;;;;;;;;;;;;5033924;28;19925;-85
2023/07/02 01:27:44;;;;;;;;;;;;;;;;;;5017164;28;20295;-83
2023/07/02 01:30:13;;;;;;;;;;;;;;;;;;5053354;28;19928;-83
2023/07/02 01:32:39;;;;;;;;;;;;;;;;;;5022677;28;19921;-86
2023/07/02 01:35:07;;;;;;;;;;;;;;;;;;5020767;28;19943;-85
2023/07/02 01:37:37;;;;;;;;;;;;;;;;;;5021511;28;19905;-86
2023/07/02 01:40:03;;;;;;;;;;;;;;;;;;5020020;28;19975;-85
2023/07/02 01:45:07;;;;;;;;;;;;;;;;;;5036629;28;19921;-85
2023/07/02 01:47:33;;;;;;;;;;;;;;;;;;5021917;28;19905;-86
2023/07/02 01:50:02;;;;;;;;;;;;;;;;;;5022408;28;19921;-87
2023/07/02 01:52:32;;;;;;;;;;;;;;;;;;5036945;28;19929;-84
2023/07/02 01:54:59;;;;;;;;;;;;;;;;;;5037291;28;19975;-83
2023/07/02 01:57:30;;;;;;;;;;;;;;;;;;5037311;28;19956;-85
2023/07/02 01:59:56;;;;;;;;;;;;;;;;;;5035838;28;19921;-85
2023/07/02 02:02:23;;;;;;;;;;;;;;;;;;5021149;28;19941;-85
2023/07/02 02:04:49;;;;;;;;;;;;;;;;;;5022134;28;19929;-85
2023/07/02 02:07:15;;;;;;;;;;;;;;;;;;5020771;28;19928;-84
2023/07/02 02:09:44;;;;;;;;;;;;;;;;;;5037317;28;19928;-84
2023/07/02 02:12:14;;;;;;;;;;;;;;;;;;5020377;28;19921;-84
2023/07/02 02:14:40;;;;;;;;;;;;;;;;;;5035992;28;19922;-84
2023/07/02 02:17:06;;;;;;;;;;;;;;;;;;5021549;28;19921;-83
2023/07/02 02:19:32;;;;;;;;;;;;;;;;;;5020850;28;19921;-85
2023/07/02 02:21:58;;;;;;;;;;;;;;;;;;5020262;28;19960;-84
2023/07/02 02:24:36;;;;;;;;;;;;;;;;;;5039533;28;19921;-84
2023/07/02 02:27:02;;;;;;;;;;;;;;;;;;5036096;28;19911;-84
2023/07/02 02:29:31;;;;;;;;;;;;;;;;;;5037946;28;19963;-87
2023/07/02 02:32:00;;;;;;;;;;;;;;;;;;5036994;28;19921;-86
2023/07/02 02:34:26;;;;;;;;;;;;;;;;;;5022077;28;19921;-83
2023/07/02 02:36:52;;;;;;;;;;;;;;;;;;5021913;28;19932;-85
2023/07/02 02:39:20;;;;;;;;;;;;;;;;;;5037510;28;19925;-84
2023/07/02 02:41:48;;;;;;;;;;;;;;;;;;5018300;28;20421;-83
2023/07/02 02:44:15;;;;;;;;;;;;;;;;;;5021065;28;19921;-85
2023/07/02 02:46:44;;;;;;;;;;;;;;;;;;5037528;28;19943;-85
2023/07/02 02:49:10;;;;;;;;;;;;;;;;;;5020508;28;19921;-82
2023/07/02 02:51:40;;;;;;;;;;;;;;;;;;5055525;28;19921;-84
2023/07/02 02:54:06;;;;;;;;;;;;;;;;;;5039189;28;19944;-85
2023/07/02 02:56:35;;;;;;;;;;;;;;;;;;5021020;28;19925;-83
2023/07/02 02:59:02;;;;;;;;;;;;;;;;;;5021712;28;19905;-83
2023/07/02 03:01:30;;;;;;;;;;;;;;;;;;5036690;28;19935;-84
2023/07/02 03:03:56;;;;;;;;;;;;;;;;;;5020619;28;19944;-85
2023/07/02 03:06:22;;;;;;;;;;;;;;;;;;5019833;28;19921;-84
2023/07/02 03:08:52;;;;;;;;;;;;;;;;;;5036089;28;19921;-85
2023/07/02 03:11:18;;;;;;;;;;;;;;;;;;5018863;28;19932;-85
2023/07/02 03:13:44;;;;;;;;;;;;;;;;;;5018109;28;19984;-84
2023/07/02 03:16:10;;;;;;;;;;;;;;;;;;5018408;28;19921;-84
2023/07/02 03:18:36;;;;;;;;;;;;;;;;;;5019642;28;19932;-83
2023/07/02 03:21:02;;;;;;;;;;;;;;;;;;5019741;28;19968;-84
2023/07/02 03:23:28;;;;;;;;;;;;;;;;;;5021185;28;19933;-85
2023/07/02 03:25:55;;;;;;;;;;;;;;;;;;5019489;28;19921;-84
2023/07/02 03:28:24;;;;;;;;;;;;;;;;;;5020028;28;19921;-84
2023/07/02 03:30:50;;;;;;;;;;;;;;;;;;5019327;28;19927;-85
2023/07/02 03:33:16;;;;;;;;;;;;;;;;;;5018880;28;19921;-85
2023/07/02 03:35:42;;;;;;;;;;;;;;;;;;5020817;28;20447;-85
2023/07/02 03:38:12;;;;;;;;;;;;;;;;;;5020033;28;19980;-85
2023/07/02 03:40:38;;;;;;;;;;;;;;;;;;5017035;28;19925;-85
2023/07/02 03:43:24;;;;;;;;;;;;;;;;;;5039971;28;19935;-84
2023/07/02 03:45:53;;;;;;;;;;;;;;;;;;5035905;28;19926;-84
2023/07/02 03:48:19;;;;;;;;;;;;;;;;;;5020684;28;19930;-84
2023/07/02 03:50:45;;;;;;;;;;;;;;;;;;5019211;28;19921;-83
2023/07/02 03:53:11;;;;;;;;;;;;;;;;;;5033858;28;20398;-86
2023/07/02 03:55:39;;;;;;;;;;;;;;;;;;5020848;28;19944;-85
2023/07/02 03:58:05;;;;;;;;;;;;;;;;;;5034438;28;19921;-84
2023/07/02 04:00:31;;;;;;;;;;;;;;;;;;5019338;28;19967;-85
2023/07/02 04:03:00;;;;;;;;;;;;;;;;;;5019773;28;19921;-84
2023/07/02 04:08:30;;;;;;;;;;;;;;;;;;5060238;28;19920;-83
2023/07/02 04:10:59;;;;;;;;;;;;;;;;;;5036398;28;19960;-85
2023/07/02 04:13:29;;;;;;;;;;;;;;;;;;5021050;28;19925;-86
2023/07/02 04:15:55;;;;;;;;;;;;;;;;;;5036356;28;19928;-85
2023/07/02 04:18:21;;;;;;;;;;;;;;;;;;5019655;28;19943;-85
2023/07/02 04:20:48;;;;;;;;;;;;;;;;;;5018921;28;20020;-85
2023/07/02 04:23:16;;;;;;;;;;;;;;;;;;5034280;28;19925;-85
2023/07/02 04:25:45;;;;;;;;;;;;;;;;;;5020489;28;19948;-85
2023/07/02 04:28:11;;;;;;;;;;;;;;;;;;5019246;28;19921;-86
2023/07/02 04:30:38;;;;;;;;;;;;;;;;;;5018751;28;19948;-86
2023/07/02 04:33:05;;;;;;;;;;;;;;;;;;5035691;28;19928;-85
2023/07/02 04:35:32;;;;;;;;;;;;;;;;;;5018506;28;19906;-85
2023/07/02 04:37:58;;;;;;;;;;;;;;;;;;5035552;28;20024;-85
2023/07/02 04:40:28;;;;;;;;;;;;;;;;;;5019316;28;19947;-84
2023/07/02 04:43:00;;;;;;;;;;;;;;;;;;5035221;28;19921;-85
2023/07/02 04:45:36;;;;;;;;;;;;;;;;;;5017632;28;19943;-85
2023/07/02 04:48:02;;;;;;;;;;;;;;;;;;5034960;28;19921;-83
2023/07/02 04:50:29;;;;;;;;;;;;;;;;;;5017688;28;19925;-85
2023/07/02 04:52:55;;;;;;;;;;;;;;;;;;5033061;28;19921;-84
2023/07/02 04:55:22;;;;;;;;;;;;;;;;;;5034259;28;19921;-85
2023/07/02 04:57:53;;;;;;;;;;;;;;;;;;5050229;28;19921;-83
2023/07/02 05:00:22;;;;;;;;;;;;;;;;;;5035216;28;19929;-86
2023/07/02 05:02:50;;;;;;;;;;;;;;;;;;5018390;28;19989;-85
2023/07/02 05:05:16;;;;;;;;;;;;;;;;;;5018637;28;19921;-84
2023/07/02 05:07:43;;;;;;;;;;;;;;;;;;5018588;28;19921;-84
2023/07/02 05:10:18;;;;;;;;;;;;;;;;;;5036247;28;19925;-83
2023/07/02 05:13:03;;;;;;;;;;;;;;;;;;5036027;28;19904;-85
2023/07/02 05:15:29;;;;;;;;;;;;;;;;;;5019461;28;19921;-85
2023/07/02 05:17:58;;;;;;;;;;;;;;;;;;5035177;28;19995;-84
2023/07/02 05:20:24;;;;;;;;;;;;;;;;;;5035596;28;19921;-84
2023/07/02 05:22:50;;;;;;;;;;;;;;;;;;5032594;28;19921;-85
2023/07/02 05:25:17;;;;;;;;;;;;;;;;;;5034499;28;19921;-83
2023/07/02 05:27:43;;;;;;;;;;;;;;;;;;5017464;28;19982;-84
2023/07/02 05:30:12;;;;;;;;;;;;;;;;;;5034320;28;19929;-85
2023/07/02 05:32:39;;;;;;;;;;;;;;;;;;5017291;28;20415;-83
2023/07/02 05:35:05;;;;;;;;;;;;;;;;;;5017133;28;19921;-83
2023/07/02 05:37:32;;;;;;;;;;;;;;;;;;5032664;28;19924;-84
2023/07/02 05:40:01;;;;;;;;;;;;;;;;;;5033394;28;20367;-83
2023/07/02 05:42:28;;;;;;;;;;;;;;;;;;5016297;28;19948;-84
2023/07/02 05:44:54;;;;;;;;;;;;;;;;;;5016937;28;19925;-85
2023/07/02 05:47:29;;;;;;;;;;;;;;;;;;5035013;28;19955;-84
2023/07/02 05:49:55;;;;;;;;;;;;;;;;;;5033015;28;19921;-85
2023/07/02 05:52:22;;;;;;;;;;;;;;;;;;5016960;28;20399;-83
2023/07/02 05:54:48;;;;;;;;;;;;;;;;;;5032863;28;19971;-83
2023/07/02 05:57:14;;;;;;;;;;;;;;;;;;5016444;28;19917;-84
2023/07/02 05:59:47;;;;;;;;;;;;;;;;;;5032545;28;19921;-83
2023/07/02 06:02:12;;;;;;;;;;;;;;;;;;5014819;28;19925;-82
2023/07/02 06:04:40;;;;;;;;;;;;;;;;;;5015274;28;19925;-83
2023/07/02 06:07:06;;;;;;;;;;;;;;;;;;5015328;28;19905;-84
2023/07/02 06:09:32;;;;;;;;;;;;;;;;;;5017160;28;19921;-83
2023/07/02 06:11:59;;;;;;;;;;;;;;;;;;5015266;28;19925;-85
2023/07/02 06:14:26;;;;;;;;;;;;;;;;;;5017010;28;19928;-84
2023/07/02 06:16:52;;;;;;;;;;;;;;;;;;5018361;28;19943;-83
2023/07/02 06:19:18;;;;;;;;;;;;;;;;;;5020928;28;19981;-82
2023/07/02 06:21:44;;;;;;;;;;;;;;;;;;5018261;28;19932;-83
2023/07/02 06:24:13;;;;;;;;;;;;;;;;;;5037191;28;19921;-81
2023/07/02 06:26:39;;;;;;;;;;;;;;;;;;5021399;28;19928;-83
2023/07/02 06:29:05;;;;;;;;;;;;;;;;;;5021128;28;19928;-84
2023/07/02 06:31:33;;;;;;;;;;;;;;;;;;5020202;28;19928;-85
2023/07/02 06:33:59;;;;;;;;;;;;;;;;;;5020522;28;19921;-81
2023/07/02 06:36:29;;;;;;;;;;;;;;;;;;5019473;28;19925;-83
2023/07/02 06:38:55;;;;;;;;;;;;;;;;;;5020614;28;19961;-83
2023/07/02 06:41:21;;;;;;;;;;;;;;;;;;5018298;28;19925;-85
2023/07/02 06:43:47;;;;;;;;;;;;;;;;;;5018892;28;19929;-83
2023/07/02 06:46:13;;;;;;;;;;;;;;;;;;5019214;28;19921;-83
2023/07/02 06:48:39;;;;;;;;;;;;;;;;;;5020402;28;19921;-83
2023/07/02 06:51:06;;;;;;;;;;;;;;;;;;5020010;28;20004;-85
2023/07/02 06:53:48;;;;;;;;;;;;;;;;;;5053276;28;19921;-81
2023/07/02 06:56:14;;;;;;;;;;;;;;;;;;5020344;28;20008;-83
2023/07/02 06:58:40;;;;;;;;;;;;;;;;;;5020094;28;19925;-82
2023/07/02 07:01:07;;;;;;;;;;;;;;;;;;5020215;28;19961;-83
2023/07/02 07:03:37;;;;;;;;;;;;;;;;;;5021937;28;19944;-83
2023/07/02 07:06:03;;;;;;;;;;;;;;;;;;5037346;28;19960;-83
2023/07/02 07:08:30;;;;;;;;;;;;;;;;;;5020623;28;19925;-83
2023/07/02 07:10:56;;;;;;;;;;;;;;;;;;5019767;28;19921;-83
2023/07/02 07:13:22;;;;;;;;;;;;;;;;;;5021428;28;19928;-83
2023/07/02 07:15:52;;;;;;;;;;;;;;;;;;5037355;28;19925;-83
2023/07/02 07:18:18;;;;;;;;;;;;;;;;;;5035601;28;19921;-83
2023/07/02 07:20:47;;;;;;;;;;;;;;;;;;5037411;28;20430;-83
2023/07/02 07:23:13;;;;;;;;;;;;;;;;;;5037235;28;19921;-82
2023/07/02 07:25:39;;;;;;;;;;;;;;;;;;5020319;28;19925;-83
2023/07/02 07:28:05;;;;;;;;;;;;;;;;;;5019953;28;19953;-82
2023/07/02 07:30:31;;;;;;;;;;;;;;;;;;5020823;28;19925;-82
2023/07/02 07:33:00;;;;;;;;;;;;;;;;;;5021456;28;19922;-84
2023/07/02 07:35:27;;;;;;;;;;;;;;;;;;5036677;28;20003;-84
2023/07/02 07:37:53;;;;;;;;;;;;;;;;;;5020307;28;19967;-84
2023/07/02 07:40:19;;;;;;;;;;;;;;;;;;5018769;28;19921;-85
2023/07/02 07:42:45;;;;;;;;;;;;;;;;;;5019688;28;19925;-82
2023/07/02 07:45:17;;;;;;;;;;;;;;;;;;5019945;28;19983;-84
2023/07/02 07:47:43;;;;;;;;;;;;;;;;;;5020068;28;19921;-85
2023/07/02 07:50:12;;;;;;;;;;;;;;;;;;5035667;28;19956;-84
2023/07/02 07:52:38;;;;;;;;;;;;;;;;;;5019305;28;19925;-81
2023/07/02 07:55:04;;;;;;;;;;;;;;;;;;5017894;28;20358;-82
2023/07/02 07:57:30;;;;;;;;;;;;;;;;;;5018818;28;19922;-83
2023/07/02 07:59:58;;;;;;;;;;;;;;;;;;5034476;28;19944;-80
2023/07/02 08:02:27;;;;;;;;;;;;;;;;;;5012880;28;19925;-82
2023/07/02 08:04:56;;;;;;;;;;;;;;;;;;5011889;28;19967;-82
2023/07/02 08:07:22;;;;;;;;;;;;;;;;;;5018422;28;20353;-83
2023/07/02 08:09:48;;;;;;;;;;;;;;;;;;5019338;28;19925;-82
2023/07/02 08:12:23;;;;;;;;;;;;;;;;;;5033650;28;19968;-83
2023/07/02 08:14:50;;;;;;;;;;;;;;;;;;5019027;28;19917;-82
2023/07/02 08:17:16;;;;;;;;;;;;;;;;;;5035808;28;19921;-81
2023/07/02 08:19:42;;;;;;;;;;;;;;;;;;5018371;28;19921;-83
2023/07/02 08:22:08;;;;;;;;;;;;;;;;;;5019714;28;19983;-82
2023/07/02 08:24:34;;;;;;;;;;;;;;;;;;5035163;28;19921;-82
2023/07/02 08:27:02;;;;;;;;;;;;;;;;;;5018285;28;19972;-82
2023/07/02 08:29:28;;;;;;;;;;;;;;;;;;5018807;28;19921;-83
2023/07/02 08:31:55;;;;;;;;;;;;;;;;;;5035760;28;20039;-81
2023/07/02 08:34:23;;;;;;;;;;;;;;;;;;5035048;28;19922;-81
2023/07/02 08:36:49;;;;;;;;;;;;;;;;;;5034539;28;19925;-81
2023/07/02 08:39:14;;;;;;;;;;;;;;;;;;5033815;28;19928;-81
2023/07/02 08:41:40;;;;;;;;;;;;;;;;;;5033821;28;19925;-82
2023/07/02 08:44:06;;;;;;;;;;;;;;;;;;5035168;28;19960;-80
2023/07/02 08:46:32;;;;;;;;;;;;;;;;;;5018273;28;19948;-83
2023/07/02 08:49:02;;;;;;;;;;;;;;;;;;5034950;28;19921;-83
2023/07/02 08:51:27;;;;;;;;;;;;;;;;;;5015598;28;19997;-81
2023/07/02 08:53:54;;;;;;;;;;;;;;;;;;5018216;28;19921;-81
2023/07/02 08:56:20;;;;;;;;;;;;;;;;;;5033217;28;19921;-82
2023/07/02 08:58:50;;;;;;;;;;;;;;;;;;5019215;28;19921;-81
2023/07/02 09:01:16;;;;;;;;;;;;;;;;;;5017669;28;19925;-81
2023/07/02 09:03:54;;;;;;;;;;;;;;;;;;5017400;28;19917;-81
2023/07/02 09:06:21;;;;;;;;;;;;;;;;;;5017661;28;19921;-82
2023/07/02 09:08:47;;;;;;;;;;;;;;;;;;5016913;28;19905;-82
2023/07/02 09:11:14;;;;;;;;;;;;;;;;;;5018405;28;19921;-80
2023/07/02 09:13:43;;;;;;;;;;;;;;;;;;5035035;28;19921;-82
2023/07/02 09:16:14;;;;;;;;;;;;;;;;;;5034302;28;20004;-81
2023/07/02 09:18:40;;;;;;;;;;;;;;;;;;5034866;28;19999;-81
2023/07/02 09:21:10;;;;;;;;;;;;;;;;;;5034201;28;19978;-81
2023/07/02 09:23:36;;;;;;;;;;;;;;;;;;5019300;28;19921;-81
2023/07/02 09:26:04;;;;;;;;;;;;;;;;;;5019242;28;20003;-83
2023/07/02 09:28:31;;;;;;;;;;;;;;;;;;5034200;28;19952;-81
2023/07/02 09:30:57;;;;;;;;;;;;;;;;;;5016768;28;19928;-83
2023/07/02 09:33:23;;;;;;;;;;;;;;;;;;5018151;28;19921;-82
2023/07/02 09:35:51;;;;;;;;;;;;;;;;;;5032696;28;19925;-83
2023/07/02 09:38:46;;;;;;;;;;;;;;;;;;5035613;28;19925;-82
2023/07/02 09:41:13;;;;;;;;;;;;;;;;;;5033660;28;19972;-84
2023/07/02 09:43:39;;;;;;;;;;;;;;;;;;5014723;28;19925;-84
2023/07/02 09:46:10;;;;;;;;;;;;;;;;;;5017637;28;19925;-84
2023/07/02 09:48:36;;;;;;;;;;;;;;;;;;5018004;28;19944;-84
2023/07/02 09:51:05;;;;;;;;;;;;;;;;;;5018269;28;20265;-85
2023/07/02 09:53:31;;;;;;;;;;;;;;;;;;5021345;28;20412;-84
2023/07/02 09:55:57;;;;;;;;;;;;;;;;;;5037244;28;19922;-85
2023/07/02 09:58:22;;;;;;;;;;;;;;;;;;5037405;28;19921;-84
2023/07/02 10:00:52;;;;;;;;;;;;;;;;;;5013092;28;19960;-83
2023/07/02 10:03:18;;;;;;;;;;;;;;;;;;5021050;28;20011;-85
2023/07/02 10:05:45;;;;;;;;;;;;;;;;;;5023913;28;19929;-88
2023/07/02 10:08:15;;;;;;;;;;;;;;;;;;5023321;28;19905;-87
2023/07/02 10:10:41;;;;;;;;;;;;;;;;;;5039288;28;19921;-87
2023/07/02 10:13:23;;;;;;;;;;;;;;;;;;5022953;28;19912;-85
2023/07/02 10:15:58;;;;;;;;;;;;;;;;;;5038957;28;19905;-86
2023/07/02 10:18:39;;;;;;;;;;;;;;;;;;5019800;28;19964;-86
2023/07/02 10:21:05;;;;;;;;;;;;;;;;;;5023971;28;19948;-87
2023/07/02 10:23:36;;;;;;;;;;;;;;;;;;5022999;28;19931;-86
2023/07/02 10:26:21;;;;;;;;;;;;;;;;;;5040030;28;19940;-84
2023/07/02 10:28:58;;;;;;;;;;;;;;;;;;;;;
2023/07/02 10:31:28;;;;;;;;;;;;;;;;;;5040524;28;19921;-85
2023/07/02 10:37:24;;;;;;;;;;;;;;;;;;4982303;28;19921;-85
2023/07/02 10:43:07;;;;;;;;;;;;;;;;;;5053935;28;19997;-84
2023/07/02 10:51:48;;;;;;;;;;;;;;;;;;5036771;28;19936;-86
2023/07/02 10:54:18;;;;;;;;;;;;;;;;;;5017593;28;19929;-86
2023/07/02 11:12:56;;;;;;;;;;;;;;;;;;4858555;29;19928;-86
2023/07/02 11:15:32;;;;;;;;;;;;;;;;;;4883418;29;19931;-84
2023/07/02 11:18:01;;;;;;;;;;;;;;;;;;4929423;29;19906;-84
2023/07/02 11:20:36;;;;;;;;;;;;;;;;;;4943679;29;20044;-86
2023/07/02 11:23:06;;;;;;;;;;;;;;;;;;4945253;29;19978;-85
2023/07/02 11:25:42;;;;;;;;;;;;;;;;;;4973557;29;19929;-86
2023/07/02 11:28:11;;;;;;;;;;;;;;;;;;4957849;29;19927;-86
2023/07/02 11:37:12;;;;;;;;;;;;;;;;;;;;;
2023/07/02 11:42:52;;;;;;;;;;;;;;;;;;4967456;29;20052;-87
2023/07/02 11:45:37;;;;;;;;;;;;;;;;;;;;;
2023/07/02 11:48:29;;;;;;;;;;;;;;;;;;4991141;28;19920;-86
2023/07/02 11:51:32;;;;;;;;;;;;;;;;;;5024705;28;19929;-86
2023/07/02 11:54:06;;;;;;;;;;;;;;;;;;5009346;28;19921;-87
2023/07/02 11:56:32;;;;;;;;;;;;;;;;;;5036730;28;19905;-88
2023/07/02 11:58:59;;;;;;;;;;;;;;;;;;5038499;28;19928;-86
2023/07/02 12:01:26;;;;;;;;;;;;;;;;;;5021193;28;19988;-88
2023/07/02 12:03:56;;;;;;;;;;;;;;;;;;5022706;28;19989;-84
2023/07/02 12:06:28;;;;;;;;;;;;;;;;;;5054632;28;19930;-87
2023/07/02 12:08:56;;;;;;;;;;;;;;;;;;5021461;28;19917;-86
2023/07/02 12:11:35;;;;;;;;;;;;;;;;;;5038418;28;19921;-86
2023/07/02 12:14:04;;;;;;;;;;;;;;;;;;5019464;28;19925;-85
2023/07/02 12:16:30;;;;;;;;;;;;;;;;;;5021021;28;19936;-89
2023/07/02 12:33:56;;;;;;;;;;;;;;;;;;5037489;28;19959;-86
2023/07/02 12:36:22;;;;;;;;;;;;;;;;;;5019509;28;19905;-87
2023/07/02 12:38:48;;;;;;;;;;;;;;;;;;5019771;28;19921;-87
2023/07/02 12:41:14;;;;;;;;;;;;;;;;;;5020356;28;19925;-87
2023/07/02 12:43:43;;;;;;;;;;;;;;;;;;5020465;28;19993;-86
2023/07/02 12:46:15;;;;;;;;;;;;;;;;;;5036821;28;19983;-88
2023/07/02 12:48:50;;;;;;;;;;;;;;;;;;5055470;28;19921;-88
2023/07/02 12:51:16;;;;;;;;;;;;;;;;;;5036616;28;19928;-86
2023/07/02 12:53:51;;;;;;;;;;;;;;;;;;5020449;28;20348;-88
2023/07/02 12:56:18;;;;;;;;;;;;;;;;;;5018707;28;19925;-87
2023/07/02 12:58:44;;;;;;;;;;;;;;;;;;5016669;28;20387;-88
2023/07/02 13:01:14;;;;;;;;;;;;;;;;;;5032343;28;19990;-86
2023/07/02 13:03:43;;;;;;;;;;;;;;;;;;5018916;28;19921;-85
2023/07/02 13:09:14;;;;;;;;;;;;;;;;;;5053247;28;19920;-87
2023/07/02 13:11:40;;;;;;;;;;;;;;;;;;5034973;28;19928;-87
2023/07/02 13:14:10;;;;;;;;;;;;;;;;;;5036950;28;19925;-86
2023/07/02 13:16:36;;;;;;;;;;;;;;;;;;5035531;28;19912;-86
2023/07/02 13:19:04;;;;;;;;;;;;;;;;;;5037766;28;19917;-85
2023/07/02 13:21:30;;;;;;;;;;;;;;;;;;5020465;28;19925;-85
2023/07/02 13:24:00;;;;;;;;;;;;;;;;;;5021200;28;19921;-87
2023/07/02 13:26:31;;;;;;;;;;;;;;;;;;5054443;28;19932;-88
2023/07/02 13:28:57;;;;;;;;;;;;;;;;;;5020988;28;19921;-88
2023/07/02 13:31:24;;;;;;;;;;;;;;;;;;5019914;28;19920;-87
2023/07/02 13:33:53;;;;;;;;;;;;;;;;;;5033470;28;19948;-85
2023/07/02 13:36:19;;;;;;;;;;;;;;;;;;5018992;28;19925;-86
2023/07/02 13:38:45;;;;;;;;;;;;;;;;;;5018435;28;19921;-87
2023/07/02 13:41:12;;;;;;;;;;;;;;;;;;5035330;28;19932;-87
2023/07/02 13:43:39;;;;;;;;;;;;;;;;;;5033777;28;19969;-86
2023/07/02 13:46:05;;;;;;;;;;;;;;;;;;5035664;28;19921;-87
2023/07/02 13:48:40;;;;;;;;;;;;;;;;;;5051292;28;19944;-85
2023/07/02 13:51:09;;;;;;;;;;;;;;;;;;5039654;28;19932;-85
2023/07/02 13:57:13;;;;;;;;;;;;;;;;;;5052797;28;19935;-86
2023/07/02 13:59:40;;;;;;;;;;;;;;;;;;4999492;28;19925;-87
2023/07/02 14:04:37;;;;;;;;;;;;;;;;;;5035489;28;20019;-85
2023/07/02 14:07:03;;;;;;;;;;;;;;;;;;5019269;28;19957;-85
2023/07/02 14:09:34;;;;;;;;;;;;;;;;;;5016767;28;19925;-85
2023/07/02 14:15:01;;;;;;;;;;;;;;;;;;5032076;28;19929;-87
2023/07/02 14:20:17;;;;;;;;;;;;;;;;;;5015542;28;19929;-83
2023/07/02 14:22:43;;;;;;;;;;;;;;;;;;5005898;28;19932;-84
2023/07/02 14:25:09;;;;;;;;;;;;;;;;;;5017689;28;19925;-84
2023/07/02 14:27:35;;;;;;;;;;;;;;;;;;5033446;28;19944;-85
2023/07/02 14:30:07;;;;;;;;;;;;;;;;;;5033886;28;20016;-83
2023/07/02 14:32:34;;;;;;;;;;;;;;;;;;5007426;28;19912;-84
2023/07/02 14:35:02;;;;;;;;;;;;;;;;;;5034326;28;19927;-85
2023/07/02 14:37:31;;;;;;;;;;;;;;;;;;5035454;28;19921;-83
2023/07/02 14:40:02;;;;;;;;;;;;;;;;;;5021512;28;19944;-86
2023/07/02 14:42:28;;;;;;;;;;;;;;;;;;5019420;28;19933;-84
2023/07/02 14:44:53;;;;;;;;;;;;;;;;;;5034564;28;19921;-85
2023/07/02 14:47:38;;;;;;;;;;;;;;;;;;5033038;28;19925;-84
2023/07/02 14:50:04;;;;;;;;;;;;;;;;;;5019005;28;19929;-86
2023/07/02 14:52:30;;;;;;;;;;;;;;;;;;5021059;28;19912;-83
2023/07/02 14:54:59;;;;;;;;;;;;;;;;;;5021347;28;19921;-85
2023/07/02 14:57:25;;;;;;;;;;;;;;;;;;5036256;28;19960;-84
2023/07/02 15:02:49;;;;;;;;;;;;;;;;;;5036778;28;19952;-84
2023/07/02 15:05:15;;;;;;;;;;;;;;;;;;5053682;28;19977;-83
2023/07/02 15:07:41;;;;;;;;;;;;;;;;;;5035755;28;19928;-83
2023/07/02 15:10:07;;;;;;;;;;;;;;;;;;5036830;28;19944;-83
2023/07/02 15:12:33;;;;;;;;;;;;;;;;;;5019755;28;19951;-83
2023/07/02 15:14:59;;;;;;;;;;;;;;;;;;5036819;28;19929;-81
2023/07/02 15:17:25;;;;;;;;;;;;;;;;;;5035686;28;19980;-85
2023/07/02 15:19:51;;;;;;;;;;;;;;;;;;5019718;28;20312;-84
2023/07/02 15:22:17;;;;;;;;;;;;;;;;;;5018619;28;19931;-83
2023/07/02 15:24:43;;;;;;;;;;;;;;;;;;5019520;28;19921;-82
2023/07/02 15:27:09;;;;;;;;;;;;;;;;;;5035521;28;19925;-84
2023/07/02 15:29:37;;;;;;;;;;;;;;;;;;5035883;28;19921;-84
2023/07/02 15:32:03;;;;;;;;;;;;;;;;;;5019327;28;19921;-82
2023/07/02 15:34:33;;;;;;;;;;;;;;;;;;5035842;28;19921;-83
2023/07/02 15:37:09;;;;;;;;;;;;;;;;;;5036863;28;19943;-81
2023/07/02 15:39:35;;;;;;;;;;;;;;;;;;5019357;28;19927;-81
2023/07/02 15:42:02;;;;;;;;;;;;;;;;;;5019381;28;19925;-83
2023/07/02 15:44:27;;;;;;;;;;;;;;;;;;5035150;28;19944;-83
2023/07/02 15:46:58;;;;;;;;;;;;;;;;;;5034963;28;19953;-85
2023/07/02 15:49:24;;;;;;;;;;;;;;;;;;5035875;28;19905;-81
2023/07/02 15:51:51;;;;;;;;;;;;;;;;;;5019143;28;19980;-83
2023/07/02 15:54:23;;;;;;;;;;;;;;;;;;5032755;28;19932;-82
2023/07/02 15:56:49;;;;;;;;;;;;;;;;;;5017226;28;20474;-83
2023/07/02 16:02:15;;;;;;;;;;;;;;;;;;5051941;28;19925;-84
2023/07/02 16:04:45;;;;;;;;;;;;;;;;;;5035773;28;19976;-84
2023/07/02 16:07:14;;;;;;;;;;;;;;;;;;5036708;28;19927;-83
2023/07/02 16:09:40;;;;;;;;;;;;;;;;;;5016686;28;19943;-82
2023/07/02 16:12:07;;;;;;;;;;;;;;;;;;5034800;28;19967;-83
2023/07/02 16:14:33;;;;;;;;;;;;;;;;;;5018434;28;19977;-83
2023/07/02 16:17:13;;;;;;;;;;;;;;;;;;5019463;28;20463;-85
2023/07/02 16:19:39;;;;;;;;;;;;;;;;;;5018966;28;19921;-80
2023/07/02 16:22:07;;;;;;;;;;;;;;;;;;5018466;28;19925;-85
2023/07/02 16:24:33;;;;;;;;;;;;;;;;;;5034077;28;19928;-83
2023/07/02 16:26:59;;;;;;;;;;;;;;;;;;5018416;28;19921;-82
2023/07/02 16:29:26;;;;;;;;;;;;;;;;;;5034726;28;19988;-82
2023/07/02 16:31:53;;;;;;;;;;;;;;;;;;5033899;28;19929;-84
2023/07/02 16:34:22;;;;;;;;;;;;;;;;;;5017493;28;19925;-83
2023/07/02 16:36:50;;;;;;;;;;;;;;;;;;5034536;28;20388;-82
2023/07/02 16:39:17;;;;;;;;;;;;;;;;;;5033042;28;19944;-81
2023/07/02 16:41:46;;;;;;;;;;;;;;;;;;5033350;28;19925;-83
2023/07/02 16:44:13;;;;;;;;;;;;;;;;;;5014310;28;19921;-83
2023/07/02 16:46:40;;;;;;;;;;;;;;;;;;5018008;28;19925;-83
2023/07/02 16:49:06;;;;;;;;;;;;;;;;;;5017216;28;19988;-83
2023/07/02 16:51:33;;;;;;;;;;;;;;;;;;5017229;28;19928;-82
2023/07/02 16:53:59;;;;;;;;;;;;;;;;;;5016817;28;19960;-84
2023/07/02 16:56:25;;;;;;;;;;;;;;;;;;5032843;28;19928;-82
2023/07/02 16:59:02;;;;;;;;;;;;;;;;;;5034200;28;19971;-82
2023/07/02 17:01:29;;;;;;;;;;;;;;;;;;5031616;28;19925;-83
2023/07/02 17:03:55;;;;;;;;;;;;;;;;;;5032167;28;19968;-82
2023/07/02 17:06:21;;;;;;;;;;;;;;;;;;5033771;28;19921;-84
2023/07/02 17:08:50;;;;;;;;;;;;;;;;;;5034455;28;19928;-82
2023/07/02 17:11:22;;;;;;;;;;;;;;;;;;5016563;28;20016;-84
2023/07/02 17:13:51;;;;;;;;;;;;;;;;;;5018038;28;20035;-83
2023/07/02 17:16:17;;;;;;;;;;;;;;;;;;5017124;28;19928;-83
2023/07/02 17:18:43;;;;;;;;;;;;;;;;;;5016558;28;20283;-82
2023/07/02 17:21:20;;;;;;;;;;;;;;;;;;5015527;28;19944;-83
2023/07/02 17:23:46;;;;;;;;;;;;;;;;;;5017907;28;19921;-83
2023/07/02 17:26:12;;;;;;;;;;;;;;;;;;5015852;28;19964;-84
2023/07/02 17:28:39;;;;;;;;;;;;;;;;;;5016750;28;19929;-83
2023/07/02 17:31:05;;;;;;;;;;;;;;;;;;5016315;28;19922;-84
2023/07/02 17:33:50;;;;;;;;;;;;;;;;;;5040722;28;19912;-87
2023/07/02 17:36:16;;;;;;;;;;;;;;;;;;5019963;28;19921;-88
2023/07/02 17:38:43;;;;;;;;;;;;;;;;;;5021884;28;19968;-90
2023/07/02 17:41:11;;;;;;;;;;;;;;;;;;5022457;28;19968;-91
2023/07/02 17:43:40;;;;;;;;;;;;;;;;;;5022151;28;19936;-89
2023/07/02 17:46:07;;;;;;;;;;;;;;;;;;5038255;28;19913;-90
2023/07/02 17:48:33;;;;;;;;;;;;;;;;;;5021970;28;19960;-90
2023/07/02 17:51:02;;;;;;;;;;;;;;;;;;5022570;28;19905;-88
2023/07/02 17:53:29;;;;;;;;;;;;;;;;;;5021078;28;19932;-90
2023/07/02 17:55:59;;;;;;;;;;;;;;;;;;5038748;28;19921;-91
2023/07/02 17:58:27;;;;;;;;;;;;;;;;;;5037981;28;20261;-91
2023/07/02 18:00:54;;;;;;;;;;;;;;;;;;5038088;28;19925;-92
2023/07/02 18:03:20;;;;;;;;;;;;;;;;;;5022040;28;19921;-91
2023/07/02 18:05:47;;;;;;;;;;;;;;;;;;5038422;28;19933;-91
2023/07/02 18:08:13;;;;;;;;;;;;;;;;;;5022193;28;19905;-91
2023/07/02 18:10:43;;;;;;;;;;;;;;;;;;5054945;28;19956;-92
2023/07/02 18:13:12;;;;;;;;;;;;;;;;;;5025199;28;19932;-90
2023/07/02 18:18:59;;;;;;;;;;;;;;;;;;5059073;28;19932;-89